Time;durP1;ratioP1;P1;durP2;ratioP2;P2;SDS_P1;SDS_P2;PMS_P1;PMS_P2;Temp;Humidity;BMP_temperature;BMP_pressure;BME280_temperature;BME280_humidity;BME280_pressure;Samples;Min_cycle;Max_cycle;Signal;HPM_P1;HPM_P2
2022/05/03 00:01:58;;;;;;;22.60;16.55;;;;;;;9.42;100.00;102042.81;5046269;28;20045;-69
2022/05/03 00:04:55;;;;;;;25.00;18.23;;;;;;;9.30;100.00;102037.06;5073814;28;20119;-69
2022/05/03 00:07:26;;;;;;;23.20;16.75;;;;;;;9.30;100.00;102041.44;5076455;28;20028;-70
2022/05/03 00:10:04;;;;;;;25.67;17.48;;;;;;;9.26;100.00;102041.31;5071264;28;20085;-70
2022/05/03 00:12:47;;;;;;;25.52;18.08;;;;;;;9.17;100.00;102034.75;5074201;28;20033;-70
2022/05/03 00:15:16;;;;;;;29.05;18.15;;;;;;;9.20;100.00;102045.41;5073650;28;20387;-70
2022/05/03 00:17:42;;;;;;;22.65;16.45;;;;;;;9.17;100.00;102040.94;5074708;28;20371;-70
2022/05/03 00:20:08;;;;;;;24.20;16.73;;;;;;;9.16;100.00;102038.25;5073927;28;20132;-69
2022/05/03 00:22:35;;;;;;;27.40;17.70;;;;;;;9.13;100.00;102038.09;5073274;28;20048;-70
2022/05/03 00:25:01;;;;;;;26.40;17.10;;;;;;;9.13;100.00;102039.00;5073322;28;20035;-70
2022/05/03 00:27:28;;;;;;;26.27;17.38;;;;;;;9.22;100.00;102043.72;5072416;28;20553;-70
2022/05/03 00:29:55;;;;;;;26.92;18.13;;;;;;;9.36;100.00;102036.41;5072591;28;20047;-71
2022/05/03 00:32:26;;;;;;;30.67;18.67;;;;;;;9.35;100.00;102045.16;5073833;28;20033;-70
2022/05/03 00:34:52;;;;;;;30.15;19.48;;;;;;;9.31;100.00;102037.97;5073377;28;20051;-71
2022/05/03 00:37:18;;;;;;;30.73;19.40;;;;;;;9.29;100.00;102035.25;5073085;28;20035;-71
2022/05/03 00:39:43;;;;;;;30.38;19.17;;;;;;;9.21;100.00;102031.41;5071788;28;20028;-70
2022/05/03 00:42:17;;;;;;;31.45;20.20;;;;;;;9.20;100.00;102037.53;5072818;28;20048;-71
2022/05/03 00:44:58;;;;;;;31.67;20.30;;;;;;;9.22;100.00;102039.34;5071980;28;20036;-70
2022/05/03 00:47:48;;;;;;;27.42;19.02;;;;;;;9.21;100.00;102039.31;5071744;28;20480;-70
2022/05/03 00:50:32;;;;;;;31.90;20.38;;;;;;;9.21;100.00;102041.94;5071316;28;20040;-71
2022/05/03 00:53:16;;;;;;;31.33;19.38;;;;;;;9.19;100.00;102038.34;5072431;28;20028;-71
2022/05/03 00:55:53;;;;;;;;;;;;;;;9.16;100.00;102036.50;5073125;28;20034;-69
2022/05/03 00:58:40;;;;;;;33.35;19.55;;;;;;;9.10;100.00;102036.22;5071392;28;20320;-69
2022/05/03 01:01:09;;;;;;;31.05;19.45;;;;;;;9.07;100.00;102031.75;5072324;28;20101;-70
2022/05/03 01:03:55;;;;;;;27.65;18.83;;;;;;;9.05;100.00;102030.78;5071510;28;20021;-71
2022/05/03 01:06:36;;;;;;;27.05;19.15;;;;;;;9.02;100.00;102030.69;5072496;28;20037;-70
2022/05/03 01:09:09;;;;;;;28.35;18.92;;;;;;;9.15;100.00;102031.19;5072077;28;20074;-69
2022/05/03 01:12:02;;;;;;;26.38;17.58;;;;;;;9.11;100.00;102031.06;5070847;28;20448;-69
2022/05/03 01:14:43;;;;;;;25.58;18.13;;;;;;;9.02;100.00;102025.44;5072118;28;20032;-71
2022/05/03 01:17:24;;;;;;;30.27;18.83;;;;;;;9.22;100.00;102036.72;5071075;28;20028;-70
2022/05/03 01:20:07;;;;;;;25.17;18.23;;;;;;;9.10;100.00;102031.88;5072360;28;20485;-71
2022/05/03 01:22:38;;;;;;;29.90;18.95;;;;;;;9.03;100.00;102021.06;5071469;28;20032;-70
2022/05/03 01:25:15;;;;;;;27.88;18.05;;;;;;;8.87;100.00;102023.06;5070416;28;20060;-70
2022/05/03 01:28:08;;;;;;;29.60;19.05;;;;;;;9.07;100.00;102020.34;5070970;28;20050;-71
2022/05/03 01:30:36;;;;;;;25.05;17.30;;;;;;;8.98;100.00;102009.47;5073077;28;20028;-70
2022/05/03 01:33:09;;;;;;;30.75;19.08;;;;;;;8.76;100.00;102013.81;5071970;28;20024;-70
2022/05/03 01:35:39;;;;;;;28.45;18.60;;;;;;;8.71;100.00;102015.34;5071304;28;20047;-70
2022/05/03 01:38:15;;;;;;;29.20;19.40;;;;;;;8.62;100.00;102018.47;5068809;28;20108;-70
2022/05/03 01:40:45;;;;;;;31.02;18.77;;;;;;;8.73;100.00;102025.06;5087737;28;20025;-70
2022/05/03 01:43:45;;;;;;;28.88;19.90;;;;;;;8.81;100.00;102019.25;5072685;28;20024;-70
2022/05/03 01:46:18;;;;;;;27.92;18.10;;;;;;;8.92;100.00;102023.22;5068694;28;20040;-70
2022/05/03 01:52:13;;;;;;;27.35;17.98;;;;;;;8.83;100.00;102017.59;5072712;28;20047;-71
2022/05/03 01:55:00;;;;;;;28.25;19.23;;;;;;;8.85;100.00;102015.94;5070637;28;20468;-70
2022/05/03 01:57:43;;;;;;;29.65;20.40;;;;;;;8.71;100.00;102008.38;5071108;28;20036;-70
2022/05/03 02:00:10;;;;;;;29.65;19.65;;;;;;;8.94;100.00;102016.34;5071330;28;20057;-71
2022/05/03 02:03:00;;;;;;;33.42;21.45;;;;;;;8.80;100.00;102010.47;5072795;28;20032;-69
2022/05/03 02:05:43;;;;;;;28.55;19.90;;;;;;;8.92;100.00;102010.09;5071585;28;20021;-69
2022/05/03 02:08:11;;;;;;;31.03;21.33;;;;;;;8.87;100.00;102014.25;5069917;28;20039;-70
2022/05/03 02:11:22;;;;;;;28.00;19.73;;;;;;;8.70;100.00;102016.19;5072400;28;20109;-71
2022/05/03 02:17:23;;;;;;;32.08;21.08;;;;;;;8.53;100.00;102015.44;5072927;28;20449;-70
2022/05/03 02:20:10;;;;;;;30.23;19.63;;;;;;;8.70;100.00;102014.44;5071812;28;20056;-71
2022/05/03 02:22:54;;;;;;;29.48;20.20;;;;;;;8.61;100.00;102016.66;5072946;28;20035;-70
2022/05/03 02:25:41;;;;;;;33.65;22.48;;;;;;;8.63;100.00;102025.50;5072800;28;20479;-70
2022/05/03 02:28:45;;;;;;;34.40;21.33;;;;;;;8.70;100.00;102022.31;5070356;28;20103;-70
2022/05/03 02:31:18;;;;;;;31.15;20.63;;;;;;;8.63;100.00;102009.75;5067151;28;20116;-70
2022/05/03 02:33:48;;;;;;;31.60;20.00;;;;;;;8.63;100.00;102016.72;5071158;28;20040;-70
2022/05/03 02:36:22;;;;;;;32.50;20.38;;;;;;;8.55;100.00;102011.16;5072489;28;20094;-69
2022/05/03 02:39:04;;;;;;;29.27;20.15;;;;;;;8.56;100.00;102008.59;5071975;28;20115;-71
2022/05/03 02:41:36;;;;;;;32.22;21.17;;;;;;;8.58;100.00;102006.03;5068227;28;20024;-71
2022/05/03 02:44:03;;;;;;;33.13;20.63;;;;;;;8.58;100.00;102011.28;5070679;28;20032;-70
2022/05/03 02:46:37;;;;;;;27.15;18.67;;;;;;;8.48;100.00;102009.06;5071818;28;20055;-70
2022/05/03 02:49:05;;;;;;;31.25;20.52;;;;;;;8.42;100.00;102004.44;5070784;28;20495;-70
2022/05/03 02:51:45;;;;;;;26.73;19.98;;;;;;;8.37;100.00;102003.31;5087885;28;20468;-69
2022/05/03 02:54:32;;;;;;;28.88;20.38;;;;;;;8.44;100.00;102006.28;5073239;28;20033;-70
2022/05/03 02:57:30;;;;;;;32.55;20.95;;;;;;;8.47;100.00;102012.56;5075014;28;20031;-70
2022/05/03 03:03:11;;;;;;;31.45;19.30;;;;;;;8.49;100.00;102008.25;5074251;28;20040;-69
2022/05/03 03:05:44;;;;;;;26.58;19.30;;;;;;;8.55;100.00;102003.28;5076502;28;20024;-69
2022/05/03 03:08:19;;;;;;;28.75;19.83;;;;;;;8.47;100.00;102002.06;5065757;28;20088;-70
2022/05/03 03:11:03;;;;;;;29.35;19.45;;;;;;;8.77;100.00;102000.75;5075900;28;20028;-70
2022/05/03 03:13:56;;;;;;;29.83;19.73;;;;;;;8.74;100.00;102000.63;5075981;28;20438;-69
2022/05/03 03:16:33;;;;;;;32.40;20.40;;;;;;;8.80;100.00;102001.72;5080995;28;20031;-70
2022/05/03 03:19:04;;;;;;;31.02;20.05;;;;;;;8.72;100.00;102002.28;5074476;28;20035;-70
2022/05/03 03:21:34;;;;;;;32.10;20.33;;;;;;;8.66;100.00;102009.00;5075929;28;20376;-71
2022/05/03 03:24:01;;;;;;;29.98;20.20;;;;;;;8.64;100.00;102013.28;5075814;28;20036;-69
2022/05/03 03:26:29;;;;;;;31.30;20.75;;;;;;;8.62;100.00;101997.47;5075658;28;20020;-71
2022/05/03 03:28:58;;;;;;;30.10;19.58;;;;;;;8.71;100.00;102003.13;5075900;28;20024;-69
2022/05/03 03:31:26;;;;;;;29.70;19.98;;;;;;;8.70;100.00;101990.81;5073966;28;20446;-71
2022/05/03 03:33:54;;;;;;;32.72;21.52;;;;;;;8.62;100.00;101986.97;5075580;28;20025;-71
2022/05/03 03:36:22;;;;;;;31.60;21.08;;;;;;;8.81;100.00;101993.03;5074582;28;20060;-71
2022/05/03 03:38:48;;;;;;;29.58;19.02;;;;;;;8.75;100.00;101989.28;5075164;28;20035;-71
2022/05/03 03:41:13;;;;;;;28.92;18.83;;;;;;;8.60;100.00;101989.53;5073595;28;20879;-70
2022/05/03 03:43:40;;;;;;;27.73;19.25;;;;;;;8.58;100.00;101991.19;5073702;28;20086;-71
2022/05/03 03:46:08;;;;;;;28.55;20.02;;;;;;;8.43;100.00;101991.38;5074380;28;20024;-71
2022/05/03 03:48:33;;;;;;;27.23;18.83;;;;;;;8.39;100.00;101988.56;5074592;28;20833;-70
2022/05/03 03:51:00;;;;;;;30.83;20.92;;;;;;;8.42;100.00;101988.69;5073557;28;20108;-70
2022/05/03 03:53:27;;;;;;;26.95;19.10;;;;;;;8.37;100.00;101985.88;5075544;28;20418;-70
2022/05/03 03:55:53;;;;;;;29.80;20.35;;;;;;;8.30;100.00;101994.28;5071503;28;20036;-70
2022/05/03 03:58:19;;;;;;;29.15;19.02;;;;;;;8.30;100.00;101996.91;5074458;28;20020;-70
2022/05/03 04:00:49;;;;;;;34.67;19.77;;;;;;;8.34;100.00;101996.25;5074976;28;20103;-71
2022/05/03 04:03:15;;;;;;;32.13;19.08;;;;;;;8.45;100.00;101988.88;5073302;28;20108;-69
2022/05/03 04:05:41;;;;;;;30.70;19.02;;;;;;;8.31;100.00;101989.97;5074435;28;20021;-68
2022/05/03 04:08:07;;;;;;;25.38;18.33;;;;;;;8.41;100.00;101995.69;5073694;28;20036;-71
2022/05/03 04:10:33;;;;;;;25.55;17.60;;;;;;;8.34;100.00;101992.72;5074813;28;20021;-71
2022/05/03 04:12:58;;;;;;;30.55;20.23;;;;;;;8.23;100.00;102002.72;5074946;28;20039;-71
2022/05/03 04:15:25;;;;;;;29.83;19.05;;;;;;;8.18;100.00;101999.91;5073531;28;20051;-71
2022/05/03 04:17:50;;;;;;;26.85;18.60;;;;;;;8.35;100.00;101991.88;5074884;28;20103;-71
2022/05/03 04:20:16;;;;;;;30.15;20.70;;;;;;;8.11;100.00;101992.56;5073823;28;20466;-70
2022/05/03 04:22:41;;;;;;;28.65;19.58;;;;;;;8.05;100.00;101990.56;5074560;28;20032;-69
2022/05/03 04:25:08;;;;;;;28.05;19.45;;;;;;;7.97;100.00;101997.19;5074316;28;20112;-70
2022/05/03 04:27:33;;;;;;;28.55;18.55;;;;;;;7.88;100.00;101999.38;5074677;28;20032;-70
2022/05/03 04:30:01;;;;;;;30.77;19.17;;;;;;;7.85;100.00;101994.00;5074220;28;20029;-70
2022/05/03 04:32:29;;;;;;;28.10;19.38;;;;;;;7.89;100.00;101994.22;5071803;28;20066;-70
2022/05/03 04:34:54;;;;;;;29.17;19.48;;;;;;;7.94;100.00;101997.94;5073815;28;20107;-70
2022/05/03 04:37:20;;;;;;;30.38;20.58;;;;;;;7.97;100.00;102005.06;5073055;28;20119;-70
2022/05/03 04:39:45;;;;;;;35.20;20.77;;;;;;;7.96;100.00;101992.78;5074651;28;20047;-70
2022/05/03 04:42:11;;;;;;;30.83;20.55;;;;;;;8.01;100.00;101996.50;5072563;28;20507;-70
2022/05/03 04:44:36;;;;;;;31.33;21.38;;;;;;;8.13;100.00;101998.78;5074130;28;20472;-70
2022/05/03 04:47:02;;;;;;;30.95;20.05;;;;;;;8.22;100.00;102000.91;5073537;28;20035;-70
2022/05/03 04:49:27;;;;;;;31.40;20.35;;;;;;;8.34;100.00;102001.50;5089524;28;20017;-70
2022/05/03 04:51:52;;;;;;;32.38;21.45;;;;;;;8.31;100.00;101989.97;5071819;28;20119;-70
2022/05/03 04:54:18;;;;;;;38.20;21.67;;;;;;;8.34;100.00;101993.63;5073672;28;20033;-70
2022/05/03 04:56:51;;;;;;;33.95;21.33;;;;;;;8.41;100.00;101998.31;5071511;28;20051;-69
2022/05/03 04:59:16;;;;;;;34.63;20.98;;;;;;;8.38;100.00;101998.19;5074275;28;20036;-70
2022/05/03 05:01:41;;;;;;;37.40;23.25;;;;;;;8.46;100.00;102000.25;5071447;28;20034;-69
2022/05/03 05:04:07;;;;;;;39.25;22.73;;;;;;;8.56;100.00;102010.31;5072300;28;20395;-69
2022/05/03 05:06:32;;;;;;;34.97;23.40;;;;;;;8.63;100.00;102016.72;5069464;28;20025;-70
2022/05/03 05:08:57;;;;;;;42.30;24.13;;;;;;;8.74;100.00;102018.09;5072438;28;20024;-72
2022/05/03 05:11:23;;;;;;;41.40;23.63;;;;;;;8.83;100.00;102018.50;5071969;28;20241;-69
2022/05/03 05:13:48;;;;;;;38.42;25.00;;;;;;;9.00;100.00;102015.69;5071524;28;20027;-69
2022/05/03 05:16:14;;;;;;;38.08;24.98;;;;;;;9.11;100.00;102020.56;5073225;28;20111;-70
2022/05/03 05:18:39;;;;;;;42.55;25.00;;;;;;;9.24;100.00;102021.06;5072328;28;20055;-70
2022/05/03 05:21:04;;;;;;;39.85;24.77;;;;;;;9.30;100.00;102016.03;5072964;28;20032;-72
2022/05/03 05:23:30;;;;;;;38.95;24.08;;;;;;;9.40;100.00;102019.94;5070323;28;20115;-70
2022/05/03 05:25:56;;;;;;;38.88;25.13;;;;;;;9.49;100.00;102022.06;5073220;28;20058;-70
2022/05/03 05:28:22;;;;;;;40.08;24.50;;;;;;;9.53;100.00;102030.09;5072996;28;20047;-71
2022/05/03 05:30:54;;;;;;;38.28;25.20;;;;;;;9.62;100.00;102029.59;5072265;28;20555;-71
2022/05/03 05:33:20;;;;;;;42.40;23.80;;;;;;;9.77;100.00;102027.56;5070776;28;20468;-72
2022/05/03 05:35:46;;;;;;;36.72;24.10;;;;;;;9.83;100.00;102019.00;5071080;28;20023;-71
2022/05/03 05:38:16;;;;;;;33.88;23.55;;;;;;;9.85;100.00;102017.34;5072847;28;20028;-70
2022/05/03 05:40:41;;;;;;;40.13;24.98;;;;;;;9.89;100.00;102020.97;5072854;28;20017;-70
2022/05/03 05:43:07;;;;;;;35.15;24.55;;;;;;;9.95;100.00;102018.59;5072609;28;20037;-72
2022/05/03 05:45:32;;;;;;;37.38;25.90;;;;;;;10.01;100.00;102018.81;5072135;28;20020;-73
2022/05/03 05:47:57;;;;;;;44.40;26.13;;;;;;;10.07;100.00;102024.31;5072041;28;20059;-71
2022/05/03 05:50:26;;;;;;;44.00;27.65;;;;;;;10.14;100.00;102025.44;5072911;28;20498;-71
2022/05/03 05:55:38;;;;;;;;;;;;;;;10.30;100.00;102026.91;5071842;28;20039;-71
2022/05/03 05:58:04;;;;;;;36.63;24.27;;;;;;;10.38;100.00;102024.59;5070274;28;20314;-72
2022/05/03 06:00:30;;;;;;;42.35;25.75;;;;;;;10.43;100.00;102023.91;5071494;28;20035;-72
2022/05/03 06:02:55;;;;;;;39.35;25.13;;;;;;;10.51;100.00;102025.91;5068439;28;20033;-71
2022/05/03 06:05:21;;;;;;;39.28;24.90;;;;;;;10.54;100.00;102021.66;5072819;28;20036;-71
2022/05/03 06:07:46;;;;;;;45.33;27.52;;;;;;;10.59;100.00;102024.44;5087555;28;20036;-72
2022/05/03 06:10:12;;;;;;;41.30;26.25;;;;;;;10.61;100.00;102028.94;5071062;28;20082;-71
2022/05/03 06:12:37;;;;;;;45.75;27.00;;;;;;;10.66;100.00;102026.44;5069736;28;20086;-71
2022/05/03 06:15:03;;;;;;;44.03;26.98;;;;;;;10.74;100.00;102025.00;5071077;28;20024;-72
2022/05/03 06:17:28;;;;;;;44.92;28.10;;;;;;;10.84;100.00;102025.31;5071599;28;20020;-70
2022/05/03 06:19:53;;;;;;;41.55;27.30;;;;;;;10.90;100.00;102025.53;5071998;28;20123;-72
2022/05/03 06:22:20;;;;;;;38.38;26.90;;;;;;;10.99;100.00;102030.19;5069561;28;20117;-72
2022/05/03 06:24:47;;;;;;;39.85;27.40;;;;;;;11.04;100.00;102032.16;5070815;28;20100;-72
2022/05/03 06:27:15;;;;;;;39.28;26.92;;;;;;;11.10;100.00;102029.72;5070765;28;20100;-71
2022/05/03 06:29:42;;;;;;;37.83;27.08;;;;;;;11.14;100.00;102030.72;5071403;28;20028;-71
2022/05/03 06:32:10;;;;;;;40.25;26.90;;;;;;;11.17;100.00;102027.31;5069635;28;20032;-71
2022/05/03 06:34:35;;;;;;;42.50;28.33;;;;;;;11.19;100.00;102038.78;5070743;28;20029;-72
2022/05/03 06:37:01;;;;;;;38.78;26.33;;;;;;;11.29;100.00;102036.50;5070854;28;20032;-72
2022/05/03 06:39:26;;;;;;;43.88;28.73;;;;;;;11.32;100.00;102040.09;5054124;28;20086;-72
2022/05/03 06:41:51;;;;;;;41.00;28.75;;;;;;;11.40;100.00;102044.75;5070641;28;20021;-72
2022/05/03 06:44:17;;;;;;;39.10;29.23;;;;;;;11.47;100.00;102041.47;5069489;28;20404;-72
2022/05/03 06:46:42;;;;;;;44.45;28.98;;;;;;;11.48;100.00;102037.97;5073313;28;20027;-72
2022/05/03 06:49:10;;;;;;;42.35;29.38;;;;;;;11.54;100.00;102037.28;5071564;28;20024;-71
2022/05/03 06:51:35;;;;;;;40.08;28.45;;;;;;;11.66;100.00;102042.06;5070730;28;20055;-69
2022/05/03 06:54:02;;;;;;;38.28;27.40;;;;;;;11.71;100.00;102043.09;5072150;28;20037;-73
2022/05/03 06:56:27;;;;;;;38.63;27.60;;;;;;;11.76;100.00;102043.22;5048613;28;20063;-73
2022/05/03 06:58:53;;;;;;;42.78;28.35;;;;;;;11.81;100.00;102047.81;5066989;28;20107;-72
2022/05/03 07:01:18;;;;;;;38.42;27.42;;;;;;;11.83;100.00;102039.97;5068222;28;20009;-72
2022/05/03 07:03:43;;;;;;;38.58;27.58;;;;;;;11.90;100.00;102035.75;5068604;28;20428;-73
2022/05/03 07:06:09;;;;;;;42.65;28.45;;;;;;;11.92;100.00;102041.97;5069646;28;20024;-73
2022/05/03 07:08:35;;;;;;;46.88;28.88;;;;;;;11.99;100.00;102041.31;5071505;28;20033;-73
2022/05/03 07:11:01;;;;;;;38.08;26.50;;;;;;;12.06;100.00;102048.59;5067817;28;20410;-74
2022/05/03 07:13:27;;;;;;;48.05;28.63;;;;;;;12.03;100.00;102043.25;5071739;28;20032;-73
2022/05/03 07:15:58;;;;;;;40.83;26.90;;;;;;;12.08;100.00;102046.88;5069295;28;20081;-73
2022/05/03 07:23:53;;;;;;;38.20;25.20;;;;;;;12.35;100.00;102045.03;5070560;28;19918;-74
2022/05/03 07:26:20;;;;;;;35.03;25.23;;;;;;;12.38;100.00;102045.97;5067982;28;20037;-73
2022/05/03 07:28:48;;;;;;;36.55;24.63;;;;;;;12.43;100.00;102043.50;5068009;28;20020;-73
2022/05/03 07:31:15;;;;;;;32.90;24.33;;;;;;;12.41;100.00;102055.72;5069427;28;20497;-73
2022/05/03 07:33:41;;;;;;;34.70;24.42;;;;;;;12.36;100.00;102052.97;5070277;28;20464;-73
2022/05/03 07:36:06;;;;;;;38.63;24.38;;;;;;;12.48;100.00;102057.72;5066311;28;20101;-73
2022/05/03 07:38:32;;;;;;;35.25;23.98;;;;;;;12.46;100.00;102055.00;5068077;28;20032;-74
2022/05/03 07:40:57;;;;;;;39.05;24.17;;;;;;;12.51;100.00;102051.59;5072275;28;20025;-74
2022/05/03 07:43:23;;;;;;;34.63;23.42;;;;;;;12.52;100.00;102054.31;5075833;28;20032;-73
2022/05/03 07:45:48;;;;;;;33.25;22.70;;;;;;;12.62;100.00;102058.09;5074153;28;20115;-72
2022/05/03 07:48:15;;;;;;;36.65;24.10;;;;;;;12.64;100.00;102053.75;5075620;28;20420;-72
2022/05/03 07:50:40;;;;;;;33.70;21.73;;;;;;;12.62;100.00;102058.09;5074204;28;20028;-72
2022/05/03 07:53:06;;;;;;;35.00;22.75;;;;;;;12.77;100.00;102055.88;5072761;28;20031;-73
2022/05/03 07:55:31;;;;;;;33.28;22.58;;;;;;;12.81;100.00;102063.00;5073873;28;20134;-73
2022/05/03 07:57:57;;;;;;;34.10;23.02;;;;;;;12.90;100.00;102058.84;5056517;28;20032;-73
2022/05/03 08:00:23;;;;;;;33.60;22.60;;;;;;;12.84;100.00;102061.31;5072416;28;20020;-74
2022/05/03 08:02:49;;;;;;;34.47;21.73;;;;;;;12.95;100.00;102054.56;5074653;28;20017;-72
2022/05/03 08:05:14;;;;;;;33.22;23.00;;;;;;;12.87;100.00;102050.84;5074854;28;20032;-73
2022/05/03 08:07:39;;;;;;;32.95;22.48;;;;;;;12.94;100.00;102060.69;5075008;28;20024;-74
2022/05/03 08:10:05;;;;;;;31.98;21.77;;;;;;;12.99;100.00;102065.28;5074442;28;20029;-74
2022/05/03 08:12:31;;;;;;;32.10;21.85;;;;;;;12.91;100.00;102060.63;5074121;28;20055;-72
2022/05/03 08:14:56;;;;;;;35.83;24.25;;;;;;;12.94;100.00;102063.34;5074899;28;20024;-71
2022/05/03 08:17:25;;;;;;;37.08;23.73;;;;;;;12.85;100.00;102063.13;5072999;28;20032;-71
2022/05/03 08:19:51;;;;;;;31.60;23.70;;;;;;;12.73;100.00;102067.19;5071128;28;20032;-71
2022/05/03 08:22:16;;;;;;;37.22;24.98;;;;;;;12.71;100.00;102071.56;5050045;28;20127;-71
2022/05/03 08:24:42;;;;;;;39.67;24.15;;;;;;;12.75;100.00;102072.53;5067277;28;20095;-71
2022/05/03 08:27:07;;;;;;;39.30;25.50;;;;;;;12.84;100.00;102078.06;5073654;28;20021;-72
2022/05/03 08:29:33;;;;;;;37.88;24.33;;;;;;;12.82;100.00;102075.38;5074147;28;20033;-71
2022/05/03 08:32:00;;;;;;;39.53;24.88;;;;;;;12.76;100.00;102083.13;5071502;28;20028;-71
2022/05/03 08:34:26;;;;;;;41.47;26.60;;;;;;;12.84;100.00;102075.41;5073262;28;20031;-71
2022/05/03 08:42:19;;;;;;;45.78;29.55;;;;;;;13.03;100.00;102079.44;5074695;28;20503;-71
2022/05/03 08:44:44;;;;;;;49.85;31.30;;;;;;;13.06;100.00;102078.63;5074741;28;20115;-70
2022/05/03 08:47:10;;;;;;;53.63;31.08;;;;;;;13.08;100.00;102075.19;5074570;28;20495;-73
2022/05/03 08:49:53;;;;;;;51.38;31.52;;;;;;;13.12;100.00;102079.69;5073618;28;20032;-73
2022/05/03 08:52:21;;;;;;;55.15;32.85;;;;;;;13.15;100.00;102079.75;5074059;28;20032;-73
2022/05/03 08:54:46;;;;;;;56.30;33.72;;;;;;;13.11;100.00;102083.19;5073177;28;20117;-71
2022/05/03 08:57:12;;;;;;;61.38;34.83;;;;;;;13.16;100.00;102081.56;5074267;28;20067;-73
2022/05/03 08:59:38;;;;;;;66.05;36.00;;;;;;;13.30;100.00;102084.53;5072096;28;20052;-72
2022/05/03 09:02:06;;;;;;;70.50;34.80;;;;;;;13.32;100.00;102082.84;5072799;28;20032;-72
2022/05/03 09:04:32;;;;;;;65.50;34.67;;;;;;;13.20;100.00;102087.81;5073354;28;20036;-72
2022/05/03 09:06:57;;;;;;;67.80;36.22;;;;;;;13.07;100.00;102086.59;5072765;28;20119;-73
2022/05/03 09:09:22;;;;;;;69.82;36.53;;;;;;;13.01;100.00;102089.09;5073190;28;20040;-73
2022/05/03 09:11:50;;;;;;;69.15;35.08;;;;;;;13.05;100.00;102093.59;5073922;28;20043;-73
2022/05/03 09:14:39;;;;;;;71.90;36.83;;;;;;;13.10;100.00;102094.63;5072883;28;20024;-73
2022/05/03 09:17:05;;;;;;;75.57;36.60;;;;;;;13.11;100.00;102096.38;5074006;28;20077;-73
2022/05/03 09:19:31;;;;;;;74.97;36.67;;;;;;;13.18;100.00;102093.91;5071882;28;20040;-72
2022/05/03 09:24:57;;;;;;;;;;;;;;;13.24;100.00;102088.78;5074644;28;20039;-73
2022/05/03 09:27:24;;;;;;;68.93;33.80;;;;;;;13.14;100.00;102091.22;5073740;28;19935;-72
2022/05/03 09:30:02;;;;;;;73.20;36.33;;;;;;;13.12;100.00;102095.53;5073510;28;20400;-72
2022/05/03 09:32:44;;;;;;;68.70;32.53;;;;;;;13.08;100.00;102093.69;5073429;28;20028;-72
2022/05/03 09:35:35;;;;;;;67.80;33.20;;;;;;;13.08;100.00;102098.97;5062769;28;20483;-73
2022/05/03 09:38:03;;;;;;;65.55;32.47;;;;;;;13.11;100.00;102093.75;5072399;28;20123;-73
2022/05/03 09:40:46;;;;;;;63.42;30.08;;;;;;;13.17;100.00;102090.38;5073082;28;20020;-73
2022/05/03 09:43:13;;;;;;;59.20;30.10;;;;;;;13.36;100.00;102099.72;5060386;28;20032;-72
2022/05/03 09:45:39;;;;;;;58.28;29.75;;;;;;;13.41;100.00;102087.50;5072737;28;20020;-73
2022/05/03 09:48:06;;;;;;;60.42;30.17;;;;;;;13.40;100.00;102093.66;5071374;28;20081;-73
2022/05/03 09:50:44;;;;;;;67.25;32.13;;;;;;;13.31;100.00;102088.09;5087193;28;20492;-73
2022/05/03 09:53:21;;;;;;;59.97;30.55;;;;;;;13.46;100.00;102091.16;5071914;28;20025;-72
2022/05/03 09:55:48;;;;;;;59.20;30.42;;;;;;;13.42;100.00;102081.34;5071993;28;20033;-72
2022/05/03 09:58:15;;;;;;;50.42;26.63;;;;;;;13.48;100.00;102086.81;5073249;28;20125;-72
2022/05/03 10:00:43;;;;;;;55.58;28.30;;;;;;;13.56;100.00;102086.97;5088120;28;20028;-71
2022/05/03 10:03:10;;;;;;;55.15;27.88;;;;;;;13.64;100.00;102089.81;5071640;28;20028;-72
2022/05/03 10:05:41;;;;;;;52.15;26.10;;;;;;;13.63;100.00;102083.63;5071030;28;20032;-71
2022/05/03 10:08:09;;;;;;;48.25;26.10;;;;;;;13.60;100.00;102088.84;5072996;28;20432;-73
2022/05/03 10:10:34;;;;;;;48.65;25.15;;;;;;;13.66;100.00;102083.69;5072763;28;20254;-70
2022/05/03 10:13:00;;;;;;;48.90;26.23;;;;;;;13.76;100.00;102084.81;5054743;28;20523;-72
2022/05/03 10:21:14;;;;;;;48.03;25.05;;;;;;;13.90;100.00;102078.94;5072991;28;20051;-71
2022/05/03 10:23:39;;;;;;;52.15;24.85;;;;;;;14.00;100.00;102084.47;5071689;28;20025;-72
2022/05/03 10:26:09;;;;;;;48.95;25.58;;;;;;;13.99;100.00;102082.69;5071264;28;20036;-72
2022/05/03 10:29:00;;;;;;;47.10;26.70;;;;;;;14.05;100.00;102084.56;5071516;28;20028;-72
2022/05/03 10:31:26;;;;;;;47.60;25.95;;;;;;;14.19;100.00;102086.63;5072780;28;20107;-72
2022/05/03 10:33:51;;;;;;;50.30;26.63;;;;;;;14.11;99.16;102087.38;5071981;28;20556;-72
2022/05/03 10:36:32;;;;;;;47.17;25.23;;;;;;;14.06;99.20;102078.41;5072618;28;20028;-72
2022/05/03 10:39:18;;;;;;;38.97;21.05;;;;;;;14.12;97.79;102082.94;5072550;28;20025;-73
2022/05/03 10:41:58;;;;;;;44.67;22.25;;;;;;;14.22;97.32;102078.78;5071660;28;20091;-73
2022/05/03 10:45:03;;;;;;;47.80;24.92;;;;;;;14.06;98.27;102073.13;5071468;28;20024;-72
2022/05/03 10:47:47;;;;;;;51.55;26.13;;;;;;;14.12;99.28;102073.28;5066979;28;20045;-71
2022/05/03 10:50:13;;;;;;;46.72;24.15;;;;;;;14.19;99.22;102079.59;5071515;28;20024;-72
2022/05/03 10:52:42;;;;;;;50.33;25.35;;;;;;;14.24;99.29;102074.38;5072699;28;20036;-72
2022/05/03 10:55:09;;;;;;;45.70;25.73;;;;;;;14.25;99.21;102074.41;5072526;28;20377;-72
2022/05/03 10:58:12;;;;;;;47.28;24.38;;;;;;;14.37;98.93;102071.13;5072479;28;20379;-72
2022/05/03 11:01:06;;;;;;;41.58;23.17;;;;;;;14.45;97.17;102072.19;5070516;28;20035;-72
2022/05/03 11:03:40;;;;;;;39.67;22.13;;;;;;;14.45;96.28;102066.88;5071245;28;20021;-73
2022/05/03 11:06:18;;;;;;;41.17;21.77;;;;;;;14.53;95.93;102064.41;5071657;28;20139;-72
2022/05/03 11:09:08;;;;;;;41.78;23.50;;;;;;;14.58;97.15;102067.13;5067578;28;20025;-72
2022/05/03 11:11:40;;;;;;;37.13;20.98;;;;;;;14.83;96.24;102058.81;5072405;28;20029;-72
2022/05/03 11:14:25;;;;;;;30.65;18.30;;;;;;;15.08;96.95;102059.25;5072399;28;20477;-73
2022/05/03 11:17:08;;;;;;;24.00;14.95;;;;;;;15.23;95.13;102058.63;5075637;28;20456;-71
2022/05/03 11:19:43;;;;;;;42.72;20.98;;;;;;;15.16;95.38;102054.97;5074599;28;20179;-71
2022/05/03 11:22:14;;;;;;;42.30;21.48;;;;;;;15.04;96.95;102056.53;5074952;28;20388;-72
2022/05/03 11:24:44;;;;;;;46.45;23.88;;;;;;;15.00;98.11;102060.88;5074867;28;20063;-72
2022/05/03 11:27:10;;;;;;;51.03;24.65;;;;;;;14.82;99.75;102064.09;5075834;28;20020;-72
2022/05/03 11:29:37;;;;;;;44.30;23.85;;;;;;;14.90;99.24;102056.28;5074770;28;20024;-72
2022/05/03 11:32:06;;;;;;;49.70;23.75;;;;;;;14.71;99.12;102057.72;5076072;28;20105;-72
2022/05/03 11:34:32;;;;;;;43.40;24.52;;;;;;;14.82;99.10;102051.72;5075181;28;20028;-72
2022/05/03 11:36:57;;;;;;;51.40;23.20;;;;;;;14.88;98.40;102050.97;5075757;28;20410;-71
2022/05/03 11:39:22;;;;;;;37.17;22.50;;;;;;;14.98;99.63;102052.91;5076446;28;20479;-71
2022/05/03 11:41:48;;;;;;;41.28;21.65;;;;;;;15.03;98.71;102050.34;5075702;28;20024;-72
2022/05/03 11:44:15;;;;;;;39.83;23.02;;;;;;;15.13;98.09;102046.09;5075780;28;20028;-73
2022/05/03 11:46:43;;;;;;;41.28;23.17;;;;;;;15.12;98.30;102046.97;5074457;28;20024;-72
2022/05/03 11:49:12;;;;;;;36.88;21.35;;;;;;;15.41;96.75;102042.13;5075661;28;20024;-72
2022/05/03 11:57:30;;;;;;;27.75;16.27;;;;;;;15.70;95.67;102032.84;5075841;28;20047;-72
2022/05/03 11:59:59;;;;;;;33.03;16.60;;;;;;;15.45;94.99;102032.44;5075555;28;20024;-72
2022/05/03 12:02:31;;;;;;;28.65;17.48;;;;;;;15.21;95.75;102036.50;5073275;28;20437;-73